createdAt,value
2018-12-06T00:00:41.578Z,95.21
2018-12-06T00:01:47.295Z,95.72
2018-12-06T00:02:52.925Z,96.15
2018-12-06T00:03:58.590Z,96.90
2018-12-06T00:05:03.905Z,97.42
2018-12-06T00:06:10.394Z,97.57
2018-12-06T00:07:15.987Z,97.78
2018-12-06T00:08:21.254Z,98.32
2018-12-06T00:09:27.786Z,98.46
2018-12-06T00:10:33.385Z,98.90
2018-12-06T00:11:39.011Z,99.36
2018-12-06T00:12:44.680Z,99.78
2018-12-06T00:13:50.370Z,99.78
2018-12-06T00:14:55.270Z,99.83
2018-12-06T00:16:00.922Z,100.00
2018-12-06T00:17:06.537Z,100.00
2018-12-06T00:18:12.247Z,100.00
2018-12-06T00:19:18.004Z,100.00
2018-12-06T00:20:23.644Z,100.00
2018-12-06T00:21:29.260Z,100.00
2018-12-06T00:22:34.942Z,100.00
2018-12-06T00:23:40.617Z,100.00
2018-12-06T00:24:46.291Z,100.00
2018-12-06T00:25:51.989Z,100.00
2018-12-06T00:26:57.385Z,100.00
2018-12-06T00:28:03.043Z,99.58
2018-12-06T00:29:08.713Z,100.00
2018-12-06T00:30:34.381Z,100.00
2018-12-06T00:31:40.025Z,100.00
2018-12-06T00:32:45.629Z,100.00
2018-12-06T00:33:51.347Z,100.00
2018-12-06T00:34:57.016Z,100.00
2018-12-06T00:36:02.668Z,100.00
2018-12-06T00:37:08.309Z,100.00
2018-12-06T00:38:13.974Z,100.00
2018-12-06T00:39:19.648Z,100.00
2018-12-06T00:40:24.587Z,100.00
2018-12-06T00:41:30.219Z,100.00
2018-12-06T00:42:35.857Z,100.00
2018-12-06T00:43:41.516Z,100.00
2018-12-06T00:44:47.208Z,100.00
2018-12-06T00:45:52.867Z,100.00
2018-12-06T00:46:58.524Z,100.00
2018-12-06T00:48:04.160Z,100.00
2018-12-06T00:49:09.803Z,100.00
2018-12-06T00:50:15.439Z,100.00
2018-12-06T00:51:21.075Z,100.00
2018-12-06T00:52:26.721Z,100.00
2018-12-06T00:53:32.325Z,100.00
2018-12-06T00:54:38.002Z,100.00
2018-12-06T00:55:43.664Z,100.00
2018-12-06T00:56:49.304Z,100.00
2018-12-06T00:57:54.932Z,100.00
2018-12-06T00:59:00.572Z,100.00
2018-12-06T01:00:05.589Z,100.00
2018-12-06T01:01:11.204Z,100.00
2018-12-06T01:02:16.877Z,100.00
2018-12-06T01:03:22.545Z,100.00
2018-12-06T01:04:28.227Z,100.00
2018-12-06T01:05:33.497Z,100.00
2018-12-06T01:06:39.147Z,100.00
2018-12-06T01:07:44.940Z,100.00
2018-12-06T01:08:50.601Z,100.00
2018-12-06T01:09:56.273Z,100.00
2018-12-06T01:11:01.933Z,100.00
2018-12-06T01:12:07.189Z,100.00
2018-12-06T01:13:12.776Z,100.00
2018-12-06T01:14:18.198Z,100.00
2018-12-06T01:15:23.861Z,100.00
2018-12-06T01:16:29.488Z,100.00
2018-12-06T01:17:35.132Z,100.00
2018-12-06T01:18:40.800Z,100.00
2018-12-06T01:19:46.438Z,100.00
2018-12-06T01:20:52.078Z,100.00
2018-12-06T01:21:57.362Z,100.00
2018-12-06T01:23:03.011Z,100.00
2018-12-06T01:24:08.692Z,100.00
2018-12-06T01:25:13.950Z,100.00
2018-12-06T01:26:19.599Z,100.00
2018-12-06T01:27:25.267Z,100.00
2018-12-06T01:28:30.896Z,100.00
2018-12-06T01:29:36.277Z,100.00
2018-12-06T01:30:41.894Z,99.92
2018-12-06T01:31:47.182Z,99.89
2018-12-06T01:32:52.813Z,100.00
2018-12-06T01:33:58.453Z,99.62
2018-12-06T01:35:03.714Z,98.96
2018-12-06T01:36:09.331Z,99.59
2018-12-06T01:37:14.958Z,100.00
2018-12-06T01:38:20.608Z,99.85
2018-12-06T01:39:26.257Z,99.63
2018-12-06T01:40:31.874Z,100.00
2018-12-06T01:41:37.619Z,100.00
2018-12-06T01:42:43.234Z,98.77
2018-12-06T01:43:48.940Z,98.20
2018-12-06T01:44:54.580Z,97.80
2018-12-06T01:46:00.194Z,97.81
2018-12-06T01:47:05.684Z,97.20
2018-12-06T01:48:11.064Z,97.16
2018-12-06T01:49:16.774Z,96.81
2018-12-06T01:50:22.390Z,97.38
2018-12-06T01:51:28.043Z,97.54
2018-12-06T01:52:33.698Z,96.97
2018-12-06T01:53:39.349Z,95.52
2018-12-06T01:54:44.992Z,95.93
2018-12-06T01:55:50.658Z,96.31
2018-12-06T01:56:56.260Z,95.34
2018-12-06T01:58:01.911Z,95.89
2018-12-06T01:59:07.545Z,96.55
2018-12-06T02:00:12.243Z,96.83
2018-12-06T02:01:17.596Z,96.80
2018-12-06T02:02:22.121Z,96.30
2018-12-06T02:03:26.713Z,95.69
2018-12-06T02:04:31.337Z,95.32
2018-12-06T02:05:36.941Z,94.40
2018-12-06T02:06:42.573Z,94.61
2018-12-06T02:07:48.232Z,93.85
2018-12-06T02:08:53.901Z,94.31
2018-12-06T02:09:59.538Z,95.22
2018-12-06T02:11:05.142Z,95.62
2018-12-06T02:12:10.753Z,94.79
2018-12-06T02:13:16.390Z,95.16
2018-12-06T02:14:21.988Z,95.39
2018-12-06T02:15:27.668Z,95.04
2018-12-06T02:16:32.933Z,95.13
2018-12-06T02:17:38.539Z,94.93
2018-12-06T02:18:44.206Z,93.96
2018-12-06T02:19:49.897Z,93.55
2018-12-06T02:20:55.561Z,93.92
2018-12-06T02:22:01.245Z,93.89
2018-12-06T02:23:06.848Z,93.41
2018-12-06T02:24:12.477Z,92.78
2018-12-06T02:25:18.181Z,91.55
2018-12-06T02:26:23.465Z,91.43
2018-12-06T02:27:29.154Z,90.53
2018-12-06T02:28:34.775Z,91.30
2018-12-06T02:29:45.881Z,91.24
2018-12-06T02:30:51.539Z,91.64
2018-12-06T02:31:57.174Z,92.37
2018-12-06T02:33:02.838Z,91.49
2018-12-06T02:34:08.506Z,91.00
2018-12-06T02:35:14.148Z,91.77
2018-12-06T02:36:19.807Z,91.08
2018-12-06T02:37:25.435Z,90.70
2018-12-06T02:38:30.710Z,90.03
2018-12-06T02:39:36.349Z,90.39
2018-12-06T02:40:42.021Z,91.40
2018-12-06T02:41:47.670Z,90.54
2018-12-06T02:42:53.428Z,89.46
2018-12-06T02:43:59.095Z,89.04
2018-12-06T02:45:04.065Z,88.93
2018-12-06T02:46:09.748Z,88.71
2018-12-06T02:47:15.364Z,89.31
2018-12-06T02:48:20.664Z,88.44
2018-12-06T02:49:26.327Z,88.67
2018-12-06T02:50:31.978Z,88.57
2018-12-06T02:51:37.608Z,89.16
2018-12-06T02:52:43.867Z,88.96
2018-12-06T02:53:50.462Z,88.32
2018-12-06T02:54:57.266Z,88.81
2018-12-06T02:56:02.915Z,89.11
2018-12-06T02:57:08.563Z,88.16
2018-12-06T02:58:14.162Z,88.07
2018-12-06T02:59:19.819Z,88.61
2018-12-06T03:00:25.474Z,89.24
2018-12-06T03:01:31.132Z,89.97
2018-12-06T03:02:36.813Z,89.97
2018-12-06T03:03:42.497Z,89.68
2018-12-06T03:04:48.142Z,88.97
2018-12-06T03:05:53.797Z,89.49
2018-12-06T03:06:59.411Z,89.58
2018-12-06T03:08:05.024Z,90.17
2018-12-06T03:09:10.652Z,89.97
2018-12-06T03:10:16.845Z,89.42
2018-12-06T03:11:22.179Z,89.65
2018-12-06T03:12:27.824Z,89.88
2018-12-06T03:13:33.479Z,90.70
2018-12-06T03:14:39.146Z,90.75
2018-12-06T03:15:44.796Z,91.07
2018-12-06T03:16:50.468Z,91.14
2018-12-06T03:17:56.157Z,90.95
2018-12-06T03:19:01.814Z,90.83
2018-12-06T03:20:06.767Z,90.57
2018-12-06T03:21:12.436Z,90.91
2018-12-06T03:22:18.132Z,90.63
2018-12-06T03:23:23.799Z,90.64
2018-12-06T03:24:29.469Z,90.75
2018-12-06T03:25:34.888Z,91.17
2018-12-06T03:26:40.221Z,91.26
2018-12-06T03:27:45.877Z,91.41
2018-12-06T03:28:51.613Z,91.19
2018-12-06T03:29:57.300Z,91.23
2018-12-06T03:31:02.998Z,91.37
2018-12-06T03:32:08.661Z,91.74
2018-12-06T03:33:14.251Z,91.84
2018-12-06T03:34:19.892Z,92.46
2018-12-06T03:35:25.559Z,91.19
2018-12-06T03:36:31.214Z,91.54
2018-12-06T03:37:36.615Z,91.50
2018-12-06T03:38:42.233Z,91.71
2018-12-06T03:39:47.881Z,92.00
2018-12-06T03:40:53.535Z,92.35
2018-12-06T03:41:59.164Z,92.78
2018-12-06T03:43:04.849Z,92.29
2018-12-06T03:44:10.463Z,92.23
2018-12-06T03:45:16.155Z,92.51
2018-12-06T03:46:22.211Z,92.26
2018-12-06T03:47:27.511Z,91.71
2018-12-06T03:48:33.170Z,92.31
2018-12-06T03:49:38.839Z,92.93
2018-12-06T03:50:44.507Z,91.47
2018-12-06T03:51:50.156Z,92.06
2018-12-06T03:52:55.777Z,92.50
2018-12-06T03:54:01.433Z,92.54
2018-12-06T03:55:06.405Z,92.49
2018-12-06T03:56:12.053Z,91.79
2018-12-06T03:57:17.660Z,92.20
2018-12-06T03:58:23.292Z,92.15
2018-12-06T03:59:28.953Z,92.35
2018-12-06T04:00:34.580Z,91.92
2018-12-06T04:01:40.251Z,92.22
2018-12-06T04:02:45.567Z,91.99
2018-12-06T04:03:50.910Z,92.59
2018-12-06T04:04:56.596Z,92.83
2018-12-06T04:06:02.255Z,92.48
2018-12-06T04:07:07.893Z,92.19
2018-12-06T04:08:13.494Z,92.45
2018-12-06T04:09:19.223Z,92.66
2018-12-06T04:10:24.917Z,91.72
2018-12-06T04:11:30.623Z,91.23
2018-12-06T04:12:36.277Z,91.35
2018-12-06T04:13:41.974Z,91.47
2018-12-06T04:14:47.630Z,92.00
2018-12-06T04:15:53.315Z,92.08
2018-12-06T04:16:59.033Z,91.47
2018-12-06T04:18:04.701Z,91.78
2018-12-06T04:19:10.367Z,91.01
2018-12-06T04:20:16.049Z,91.67
2018-12-06T04:21:21.490Z,91.59
2018-12-06T04:22:27.093Z,91.94
2018-12-06T04:23:32.886Z,91.43
2018-12-06T04:24:38.053Z,91.13
2018-12-06T04:25:43.668Z,91.45
2018-12-06T04:26:49.315Z,91.00
2018-12-06T04:27:54.965Z,91.24
2018-12-06T04:29:01.239Z,91.21
2018-12-06T04:30:06.756Z,91.59
2018-12-06T04:31:12.385Z,91.56
2018-12-06T04:32:18.024Z,91.42
2018-12-06T04:33:23.682Z,91.49
2018-12-06T04:34:29.346Z,91.34
2018-12-06T04:35:34.989Z,91.45
2018-12-06T04:36:40.631Z,91.55
2018-12-06T04:37:46.294Z,90.96
2018-12-06T04:38:52.857Z,90.97
2018-12-06T04:39:58.530Z,90.79
2018-12-06T04:41:04.177Z,90.89
2018-12-06T04:42:09.878Z,91.02
2018-12-06T04:43:15.506Z,90.82
2018-12-06T04:44:21.126Z,90.88
2018-12-06T04:45:26.746Z,91.57
2018-12-06T04:46:32.436Z,91.40
2018-12-06T04:47:38.088Z,91.85
2018-12-06T04:48:43.761Z,91.82
2018-12-06T04:49:49.392Z,91.90
2018-12-06T04:50:55.454Z,91.99
2018-12-06T04:52:01.130Z,92.24
2018-12-06T04:53:06.725Z,92.09
2018-12-06T04:54:12.370Z,92.18
2018-12-06T04:55:18.030Z,92.46
2018-12-06T04:56:23.688Z,92.37
2018-12-06T04:57:29.351Z,92.28
2018-12-06T04:58:34.989Z,91.55
2018-12-06T04:59:40.634Z,91.97
2018-12-06T05:00:46.293Z,92.33
2018-12-06T05:01:51.994Z,92.36
2018-12-06T05:02:57.728Z,92.62
2018-12-06T05:04:03.350Z,92.96
2018-12-06T05:05:08.336Z,92.65
2018-12-06T05:06:13.963Z,92.69
2018-12-06T05:07:19.617Z,92.40
2018-12-06T05:08:25.279Z,92.54
2018-12-06T05:09:30.929Z,92.36
2018-12-06T05:10:36.553Z,92.34
2018-12-06T05:11:42.240Z,92.58
2018-12-06T05:12:47.900Z,92.78
2018-12-06T05:13:53.584Z,91.80
2018-12-06T05:14:59.250Z,91.36
2018-12-06T05:16:04.902Z,91.28
2018-12-06T05:17:10.609Z,90.71
2018-12-06T05:18:16.315Z,90.33
2018-12-06T05:19:21.969Z,90.31
2018-12-06T05:20:27.684Z,90.36
2018-12-06T05:21:33.392Z,90.79
2018-12-06T05:22:39.076Z,91.46
2018-12-06T05:23:44.690Z,91.19
2018-12-06T05:24:50.349Z,91.20
2018-12-06T05:25:55.986Z,91.23
2018-12-06T05:27:01.370Z,90.98
2018-12-06T05:28:06.993Z,91.18
2018-12-06T05:29:12.656Z,91.63
2018-12-06T05:30:18.296Z,91.94
2018-12-06T05:31:24.085Z,91.93
2018-12-06T05:32:29.782Z,92.06
2018-12-06T05:33:35.424Z,91.85
2018-12-06T05:34:41.696Z,90.84
2018-12-06T05:35:47.363Z,91.38
2018-12-06T05:36:53.029Z,91.76
2018-12-06T05:37:58.657Z,91.06
2018-12-06T05:39:03.416Z,89.77
2018-12-06T05:40:09.097Z,89.29
2018-12-06T05:41:14.726Z,89.51
2018-12-06T05:42:20.379Z,89.33
2018-12-06T05:43:26.043Z,90.09
2018-12-06T05:44:31.683Z,90.81
2018-12-06T05:45:37.322Z,91.26
2018-12-06T05:46:43.007Z,91.51
2018-12-06T05:47:48.690Z,91.85
2018-12-06T05:48:54.363Z,91.75
2018-12-06T05:50:00.069Z,92.10
2018-12-06T05:51:05.408Z,92.25
2018-12-06T05:52:11.132Z,92.79
2018-12-06T05:53:16.569Z,92.88
2018-12-06T05:54:22.290Z,93.07
2018-12-06T05:55:28.002Z,92.83
2018-12-06T05:56:33.621Z,92.99
2018-12-06T05:57:39.346Z,93.52
2018-12-06T05:58:45.020Z,93.93
2018-12-06T05:59:50.640Z,94.25
2018-12-06T06:00:56.274Z,94.20
2018-12-06T06:02:01.934Z,93.49
2018-12-06T06:03:07.618Z,93.27
2018-12-06T06:04:13.228Z,93.36
2018-12-06T06:05:18.851Z,93.65
2018-12-06T06:06:24.573Z,92.91
2018-12-06T06:07:30.198Z,92.57
2018-12-06T06:08:35.849Z,92.19
2018-12-06T06:09:41.510Z,92.47
2018-12-06T06:10:47.791Z,92.44
2018-12-06T06:11:53.969Z,92.67
2018-12-06T06:12:59.960Z,92.48
2018-12-06T06:14:05.593Z,91.96
2018-12-06T06:15:11.248Z,91.75
2018-12-06T06:16:16.908Z,91.55
2018-12-06T06:17:22.544Z,92.13
2018-12-06T06:18:28.205Z,92.28
2018-12-06T06:19:33.839Z,92.25
2018-12-06T06:20:39.548Z,92.41
2018-12-06T06:21:45.175Z,91.60
2018-12-06T06:22:50.828Z,92.05
2018-12-06T06:23:56.428Z,91.65
2018-12-06T06:25:02.089Z,91.65
2018-12-06T06:26:07.779Z,91.74
2018-12-06T06:27:13.411Z,91.24
2018-12-06T06:28:19.077Z,90.38
2018-12-06T06:29:24.768Z,89.56
2018-12-06T06:30:30.372Z,89.35
2018-12-06T06:31:36.009Z,89.10
2018-12-06T06:32:41.703Z,89.09
2018-12-06T06:33:47.315Z,89.87
2018-12-06T06:34:52.923Z,89.56
2018-12-06T06:35:58.569Z,89.33
2018-12-06T06:37:03.890Z,88.27
2018-12-06T06:38:09.665Z,87.93
2018-12-06T06:39:15.318Z,86.87
2018-12-06T06:40:20.633Z,88.07
2018-12-06T06:41:26.320Z,87.97
2018-12-06T06:42:31.986Z,88.39
2018-12-06T06:43:37.634Z,88.19
2018-12-06T06:44:44.715Z,88.44
2018-12-06T06:45:51.467Z,88.07
2018-12-06T06:46:57.116Z,87.57
2018-12-06T06:48:02.786Z,87.33
2018-12-06T06:49:13.782Z,86.62
2018-12-06T06:50:14.140Z,87.43
2018-12-06T06:51:19.819Z,88.15
2018-12-06T06:52:25.483Z,87.78
2018-12-06T06:53:31.121Z,88.66
2018-12-06T06:54:36.780Z,89.08
2018-12-06T06:55:42.394Z,88.92
2018-12-06T06:56:48.092Z,87.87
2018-12-06T06:57:53.780Z,86.96
2018-12-06T06:58:59.446Z,87.95
2018-12-06T07:00:04.626Z,87.79
2018-12-06T07:01:10.784Z,87.02
2018-12-06T07:02:16.965Z,86.95
2018-12-06T07:03:22.644Z,87.70
2018-12-06T07:04:28.368Z,87.57
2018-12-06T07:05:34.029Z,86.70
2018-12-06T07:06:39.675Z,86.48
2018-12-06T07:07:45.373Z,86.23
2018-12-06T07:08:50.781Z,86.08
2018-12-06T07:09:56.465Z,85.93
2018-12-06T07:11:02.180Z,85.81
2018-12-06T07:12:07.819Z,85.78
2018-12-06T07:13:13.472Z,86.62
2018-12-06T07:14:19.131Z,87.31
2018-12-06T07:15:24.769Z,87.19
2018-12-06T07:16:30.385Z,87.23
2018-12-06T07:17:36.089Z,86.56
2018-12-06T07:18:41.761Z,86.67
2018-12-06T07:19:47.408Z,87.75
2018-12-06T07:20:53.558Z,87.16
2018-12-06T07:22:00.559Z,87.03
2018-12-06T07:23:06.679Z,86.86
2018-12-06T07:24:12.293Z,87.64
2018-12-06T07:25:17.583Z,88.05
2018-12-06T07:26:23.206Z,87.05
2018-12-06T07:27:28.911Z,86.90
2018-12-06T07:28:34.574Z,87.27
2018-12-06T07:29:40.173Z,88.53
2018-12-06T07:30:45.811Z,88.02
2018-12-06T07:31:51.454Z,87.97
2018-12-06T07:32:57.129Z,88.30
2018-12-06T07:34:02.835Z,87.99
2018-12-06T07:35:08.481Z,88.37
2018-12-06T07:36:14.135Z,87.98
2018-12-06T07:37:19.749Z,87.77
2018-12-06T07:38:25.433Z,88.21
2018-12-06T07:39:31.077Z,88.51
2018-12-06T07:40:36.766Z,88.26
2018-12-06T07:41:42.462Z,87.25
2018-12-06T07:42:48.107Z,87.71
2018-12-06T07:43:53.775Z,88.45
2018-12-06T07:44:59.423Z,89.15
2018-12-06T07:46:07.892Z,88.86
2018-12-06T07:47:13.516Z,89.35
2018-12-06T07:48:19.169Z,88.96
2018-12-06T07:49:24.780Z,88.65
2018-12-06T07:50:30.404Z,87.72
2018-12-06T07:51:36.103Z,86.62
2018-12-06T07:52:41.835Z,86.02
2018-12-06T07:53:47.500Z,87.07
2018-12-06T07:54:53.132Z,86.21
2018-12-06T07:55:58.782Z,86.26
2018-12-06T07:57:04.382Z,86.52
2018-12-06T07:58:10.057Z,86.61
2018-12-06T07:59:15.658Z,86.55
2018-12-06T08:00:21.324Z,86.37
2018-12-06T08:01:26.952Z,86.50
2018-12-06T08:02:32.581Z,87.10
2018-12-06T08:03:38.263Z,86.73
2018-12-06T08:04:43.918Z,87.01
2018-12-06T08:05:49.603Z,87.40
2018-12-06T08:06:55.248Z,87.69
2018-12-06T08:08:00.922Z,87.82
2018-12-06T08:09:05.927Z,87.84
2018-12-06T08:10:11.256Z,87.22
2018-12-06T08:11:16.871Z,87.89
2018-12-06T08:12:22.549Z,87.69
2018-12-06T08:13:28.238Z,88.03
2018-12-06T08:14:33.892Z,88.93
2018-12-06T08:15:39.580Z,88.78
2018-12-06T08:16:45.229Z,88.10
2018-12-06T08:17:50.920Z,88.64
2018-12-06T08:18:56.594Z,89.05
2018-12-06T08:20:02.240Z,88.94
2018-12-06T08:21:07.897Z,88.87
2018-12-06T08:22:13.597Z,89.07
2018-12-06T08:23:19.296Z,88.93
2018-12-06T08:24:24.896Z,89.67
2018-12-06T08:25:30.585Z,90.91
2018-12-06T08:26:38.213Z,89.54
2018-12-06T08:27:44.565Z,88.76
2018-12-06T08:28:51.823Z,89.21
2018-12-06T08:29:58.637Z,88.66
2018-12-06T08:31:05.988Z,88.06
2018-12-06T08:32:12.933Z,87.79
2018-12-06T08:33:19.361Z,88.62
2018-12-06T08:34:25.488Z,89.39
2018-12-06T08:35:32.151Z,89.75
2018-12-06T08:36:39.290Z,90.04
2018-12-06T08:37:46.097Z,90.29
2018-12-06T08:38:52.931Z,89.58
2018-12-06T08:39:59.320Z,88.18
2018-12-06T08:41:06.628Z,88.79
2018-12-06T08:42:14.065Z,89.33
2018-12-06T08:43:20.321Z,89.19
2018-12-06T08:44:27.267Z,88.52
2018-12-06T08:45:33.986Z,88.76
2018-12-06T08:46:40.415Z,88.88
2018-12-06T08:47:47.755Z,88.54
2018-12-06T08:49:02.830Z,87.76
2018-12-06T08:50:02.648Z,86.77
2018-12-06T08:51:10.509Z,86.87
2018-12-06T08:52:17.695Z,86.77
2018-12-06T08:53:24.320Z,87.32
2018-12-06T08:54:29.973Z,87.48
2018-12-06T08:55:37.452Z,88.25
2018-12-06T08:56:45.088Z,87.62
2018-12-06T08:57:53.409Z,87.21
2018-12-06T08:59:00.273Z,87.43
2018-12-06T09:00:05.971Z,88.54
2018-12-06T09:01:12.675Z,87.90
2018-12-06T09:02:19.527Z,87.35
2018-12-06T09:03:27.151Z,88.11
2018-12-06T09:04:33.420Z,88.70
2018-12-06T09:05:39.622Z,88.11
2018-12-06T09:06:45.924Z,88.03
2018-12-06T09:07:52.675Z,88.22
2018-12-06T09:08:59.763Z,87.84
2018-12-06T09:10:07.140Z,87.43
2018-12-06T09:11:15.181Z,87.92
2018-12-06T09:12:21.844Z,87.92
2018-12-06T09:13:29.854Z,88.73
2018-12-06T09:14:36.182Z,88.39
2018-12-06T09:15:42.530Z,88.60
2018-12-06T09:16:49.319Z,87.94
2018-12-06T09:17:57.260Z,87.85
2018-12-06T09:19:04.224Z,87.19
2018-12-06T09:20:11.409Z,86.99
2018-12-06T09:21:19.310Z,87.36
2018-12-06T09:22:26.585Z,86.85
2018-12-06T09:23:34.026Z,87.03
2018-12-06T09:24:40.283Z,87.07
2018-12-06T09:25:47.514Z,87.26
2018-12-06T09:26:58.835Z,87.42
2018-12-06T09:28:02.835Z,87.48
2018-12-06T09:29:11.449Z,86.93
2018-12-06T09:30:18.791Z,86.42
2018-12-06T09:31:25.748Z,86.15
2018-12-06T09:32:35.678Z,86.22
2018-12-06T09:34:04.305Z,86.32
2018-12-06T09:35:11.113Z,86.54
2018-12-06T09:36:17.291Z,86.97
2018-12-06T09:37:24.302Z,87.43
2018-12-06T09:38:32.215Z,87.77
2018-12-06T09:39:39.272Z,87.37
2018-12-06T09:40:46.596Z,87.77
2018-12-06T09:41:53.914Z,87.80
2018-12-06T09:43:00.826Z,87.56
2018-12-06T09:44:07.922Z,87.40
2018-12-06T09:45:14.776Z,87.30
2018-12-06T09:46:21.773Z,87.87
2018-12-06T09:47:28.622Z,87.99
2018-12-06T09:48:34.966Z,88.59
2018-12-06T09:49:41.116Z,88.08
2018-12-06T09:50:47.392Z,88.51
2018-12-06T09:51:54.544Z,89.16
2018-12-06T09:53:01.717Z,89.08
2018-12-06T09:54:07.876Z,89.04
2018-12-06T09:55:15.106Z,88.87
2018-12-06T09:56:21.809Z,89.05
2018-12-06T09:57:28.930Z,89.75
2018-12-06T09:58:35.410Z,90.60
2018-12-06T09:59:42.042Z,89.88
2018-12-06T10:00:48.784Z,89.80
2018-12-06T10:01:57.301Z,89.40
2018-12-06T10:03:04.880Z,89.94
2018-12-06T10:04:11.573Z,90.51
2018-12-06T10:05:18.783Z,90.73
2018-12-06T10:06:25.325Z,90.91
2018-12-06T10:07:32.052Z,90.67
2018-12-06T10:08:39.062Z,90.84
2018-12-06T10:09:45.743Z,90.42
2018-12-06T10:10:52.435Z,89.68
2018-12-06T10:11:59.428Z,89.29
2018-12-06T10:13:07.045Z,89.31
2018-12-06T10:14:13.223Z,88.83
2018-12-06T10:15:18.497Z,88.73
2018-12-06T10:16:24.139Z,88.61
2018-12-06T10:17:29.812Z,88.92
2018-12-06T10:18:35.382Z,88.86
2018-12-06T10:19:41.009Z,88.89
2018-12-06T10:20:46.619Z,88.82
2018-12-06T10:21:51.921Z,88.75
2018-12-06T10:22:57.583Z,88.84
2018-12-06T10:24:03.173Z,89.13
2018-12-06T10:25:08.792Z,89.32
2018-12-06T10:26:14.397Z,89.70
2018-12-06T10:27:20.046Z,90.06
2018-12-06T10:28:25.660Z,89.38
2018-12-06T10:29:31.319Z,89.25
2018-12-06T10:30:36.905Z,88.85
2018-12-06T10:31:42.530Z,89.08
2018-12-06T10:32:48.741Z,89.40
2018-12-06T10:33:54.452Z,89.21
2018-12-06T10:35:00.092Z,89.33
2018-12-06T10:36:05.741Z,89.24
2018-12-06T10:37:11.359Z,89.29
2018-12-06T10:38:17.244Z,89.81
2018-12-06T10:39:22.851Z,89.90
2018-12-06T10:40:28.472Z,90.09
2018-12-06T10:41:34.110Z,90.37
2018-12-06T10:42:40.350Z,90.16
2018-12-06T10:43:46.084Z,89.70
2018-12-06T10:44:51.686Z,89.84
2018-12-06T10:45:57.313Z,90.23
2018-12-06T10:47:02.952Z,90.07
2018-12-06T10:48:08.229Z,90.50
2018-12-06T10:49:13.845Z,90.59
2018-12-06T10:50:19.489Z,90.68
2018-12-06T10:51:36.203Z,91.23
2018-12-06T10:52:42.527Z,91.36
2018-12-06T10:53:50.327Z,91.48
2018-12-06T10:54:57.224Z,91.37
2018-12-06T10:56:03.893Z,91.43
2018-12-06T10:57:11.590Z,91.63
2018-12-06T10:58:20.317Z,91.04
2018-12-06T10:59:27.907Z,91.42
2018-12-06T11:00:40.508Z,92.07
2018-12-06T11:01:47.140Z,92.00
2018-12-06T11:02:54.568Z,91.65
2018-12-06T11:04:01.092Z,92.01
2018-12-06T11:05:08.308Z,91.83
2018-12-06T11:06:14.984Z,90.95
2018-12-06T11:07:21.891Z,91.09
2018-12-06T11:08:28.398Z,90.87
2018-12-06T11:09:35.245Z,91.01
2018-12-06T11:10:42.701Z,91.41
2018-12-06T11:11:50.544Z,90.97
2018-12-06T11:12:57.029Z,91.52
2018-12-06T11:14:03.781Z,91.54
2018-12-06T11:15:10.487Z,91.67
2018-12-06T11:16:17.741Z,92.28
2018-12-06T11:17:25.292Z,92.26
2018-12-06T11:18:31.541Z,92.11
2018-12-06T11:19:37.696Z,91.59
2018-12-06T11:20:44.532Z,91.08
2018-12-06T11:21:51.170Z,91.21
2018-12-06T11:22:59.358Z,91.34
2018-12-06T11:24:05.683Z,90.81
2018-12-06T11:25:11.855Z,90.58
2018-12-06T11:26:17.950Z,91.46
2018-12-06T11:27:25.901Z,91.79
2018-12-06T11:28:33.217Z,91.98
2018-12-06T11:29:41.288Z,91.75
2018-12-06T11:30:48.165Z,91.51
2018-12-06T11:31:55.313Z,92.93
2018-12-06T11:33:02.678Z,93.57
2018-12-06T11:34:09.620Z,94.32
2018-12-06T11:35:16.779Z,94.26
2018-12-06T11:36:23.642Z,94.21
2018-12-06T11:37:30.473Z,95.08
2018-12-06T11:38:38.011Z,95.64
2018-12-06T11:39:44.408Z,96.29
2018-12-06T11:40:51.512Z,96.27
2018-12-06T11:41:57.575Z,95.75
2018-12-06T11:43:03.582Z,96.17
2018-12-06T11:44:10.426Z,94.69
2018-12-06T11:45:17.307Z,94.60
2018-12-06T11:46:24.276Z,94.74
2018-12-06T11:47:31.487Z,94.33
2018-12-06T11:48:37.838Z,93.72
2018-12-06T11:49:44.010Z,94.35
2018-12-06T11:50:51.186Z,94.59
2018-12-06T11:51:58.567Z,94.34
2018-12-06T11:53:06.132Z,93.34
2018-12-06T11:54:13.747Z,93.76
2018-12-06T11:55:21.581Z,94.16
2018-12-06T11:56:28.244Z,93.48
2018-12-06T11:57:33.969Z,93.26
2018-12-06T11:58:40.844Z,93.70
2018-12-06T11:59:47.585Z,92.51
2018-12-06T12:00:53.784Z,92.18
2018-12-06T12:02:00.155Z,92.67
2018-12-06T12:03:07.315Z,92.88
2018-12-06T12:04:14.657Z,92.83
2018-12-06T12:05:21.456Z,92.14
2018-12-06T12:06:28.657Z,92.70
2018-12-06T12:07:35.602Z,92.26
2018-12-06T12:08:43.328Z,92.91
2018-12-06T12:09:49.335Z,93.30
2018-12-06T12:10:54.949Z,92.84
2018-12-06T12:12:01.918Z,92.87
2018-12-06T12:13:08.146Z,93.12
2018-12-06T12:14:14.310Z,93.25
2018-12-06T12:15:20.217Z,93.11
2018-12-06T12:16:27.077Z,94.34
2018-12-06T12:17:33.781Z,94.52
2018-12-06T12:18:39.846Z,93.97
2018-12-06T12:19:46.624Z,93.65
2018-12-06T12:20:53.699Z,93.62
2018-12-06T12:22:00.396Z,94.95
2018-12-06T12:23:06.014Z,94.98
2018-12-06T12:24:13.308Z,94.75
2018-12-06T12:25:20.231Z,94.82
2018-12-06T12:26:27.627Z,94.77
2018-12-06T12:27:36.248Z,95.59
2018-12-06T12:28:43.627Z,96.18
2018-12-06T12:29:50.345Z,95.51
2018-12-06T12:30:56.633Z,95.46
2018-12-06T12:32:04.168Z,95.46
2018-12-06T12:33:10.990Z,95.36
2018-12-06T12:34:16.677Z,95.54
2018-12-06T12:35:22.337Z,96.33
2018-12-06T12:36:29.187Z,96.46
2018-12-06T12:37:36.138Z,97.10
2018-12-06T12:38:43.840Z,96.41
2018-12-06T12:39:51.177Z,96.27
2018-12-06T12:40:58.005Z,96.20
2018-12-06T12:42:04.765Z,95.51
2018-12-06T12:43:10.460Z,95.90
2018-12-06T12:44:16.796Z,96.18
2018-12-06T12:45:23.494Z,96.65
2018-12-06T12:46:34.190Z,96.16
2018-12-06T12:47:40.137Z,95.73
2018-12-06T12:48:48.745Z,96.29
2018-12-06T12:49:56.122Z,96.97
2018-12-06T12:51:01.743Z,97.20
2018-12-06T12:52:08.478Z,97.12
2018-12-06T12:53:16.131Z,97.31
2018-12-06T12:54:23.764Z,96.99
2018-12-06T12:55:29.615Z,96.66
2018-12-06T12:56:36.655Z,96.95
2018-12-06T12:57:43.663Z,96.99
2018-12-06T12:58:51.406Z,96.81
2018-12-06T12:59:58.067Z,96.59
2018-12-06T13:01:04.926Z,96.11
2018-12-06T13:02:12.870Z,95.85
2018-12-06T13:03:19.636Z,95.69
2018-12-06T13:04:25.830Z,95.95
2018-12-06T13:05:32.143Z,96.30
2018-12-06T13:06:39.218Z,96.68
2018-12-06T13:07:48.281Z,97.20
2018-12-06T13:08:53.957Z,97.54
2018-12-06T13:10:00.538Z,98.15
2018-12-06T13:11:07.989Z,97.77
2018-12-06T13:12:13.944Z,97.25
2018-12-06T13:13:19.547Z,97.06
2018-12-06T13:14:25.152Z,96.90
2018-12-06T13:15:31.864Z,96.88
2018-12-06T13:16:38.927Z,96.82
2018-12-06T13:17:44.752Z,97.04
2018-12-06T13:18:50.501Z,96.92
2018-12-06T13:19:57.805Z,96.49
2018-12-06T13:21:05.456Z,96.46
2018-12-06T13:22:10.646Z,95.96
2018-12-06T13:23:17.437Z,96.33
2018-12-06T13:24:24.103Z,96.79
2018-12-06T13:25:30.640Z,96.85
2018-12-06T13:26:37.223Z,96.44
2018-12-06T13:27:43.360Z,97.20
2018-12-06T13:28:49.831Z,96.61
2018-12-06T13:29:56.939Z,96.84
2018-12-06T13:31:03.592Z,96.72
2018-12-06T13:32:08.989Z,96.41
2018-12-06T13:33:14.703Z,96.06
2018-12-06T13:34:22.085Z,96.15
2018-12-06T13:35:31.060Z,97.02
2018-12-06T13:36:37.508Z,96.83
2018-12-06T13:37:42.924Z,96.31
2018-12-06T13:38:49.736Z,96.59
2018-12-06T13:39:56.239Z,96.71
2018-12-06T13:41:02.020Z,97.37
2018-12-06T13:42:07.647Z,97.92
2018-12-06T13:43:12.909Z,98.49
2018-12-06T13:44:18.209Z,98.19
2018-12-06T13:45:23.816Z,98.25
2018-12-06T13:46:29.589Z,98.72
2018-12-06T13:47:35.377Z,99.16
2018-12-06T13:48:40.997Z,99.44
2018-12-06T13:49:46.601Z,99.26
2018-12-06T13:50:52.898Z,98.18
2018-12-06T13:52:00.364Z,98.87
2018-12-06T13:53:07.926Z,98.79
2018-12-06T13:54:14.847Z,98.89
2018-12-06T13:55:20.833Z,98.54
2018-12-06T13:56:28.422Z,97.68
2018-12-06T13:57:34.914Z,97.36
2018-12-06T13:58:43.049Z,97.59
2018-12-06T13:59:50.052Z,97.70
2018-12-06T14:00:56.189Z,97.48
2018-12-06T14:02:02.485Z,97.44
2018-12-06T14:03:09.206Z,97.65
2018-12-06T14:04:15.838Z,97.99
2018-12-06T14:05:21.761Z,98.01
2018-12-06T14:06:27.760Z,98.39
2018-12-06T14:07:34.771Z,98.81
2018-12-06T14:08:42.373Z,98.94
2018-12-06T14:09:49.171Z,98.67